sensor_id;sensor_type;location;lat;lon;timestamp;pressure;altitude;pressure_sealevel;temperature;humidity
65997;BME280;52765;52.258;21.052;2023-07-22T00:00:39;100013.88;;;19.40;85.09
65997;BME280;52765;52.258;21.052;2023-07-22T00:03:05;100011.75;;;19.42;85.58
65997;BME280;52765;52.258;21.052;2023-07-22T00:05:30;100009.63;;;19.45;86.38
65997;BME280;52765;52.258;21.052;2023-07-22T00:07:55;100007.31;;;19.41;87.04
65997;BME280;52765;52.258;21.052;2023-07-22T00:10:21;100009.22;;;19.41;87.54
65997;BME280;52765;52.258;21.052;2023-07-22T00:12:46;100014.53;;;19.36;88.41
65997;BME280;52765;52.258;21.052;2023-07-22T00:15:12;100010.59;;;19.32;88.99
65997;BME280;52765;52.258;21.052;2023-07-22T00:17:38;100001.97;;;19.28;89.21
65997;BME280;52765;52.258;21.052;2023-07-22T00:20:05;100004.72;;;19.28;89.97
65997;BME280;52765;52.258;21.052;2023-07-22T00:22:32;100010.59;;;19.25;89.94
65997;BME280;52765;52.258;21.052;2023-07-22T00:24:57;100003.72;;;19.22;90.81
65997;BME280;52765;52.258;21.052;2023-07-22T00:27:25;99997.25;;;19.17;92.14
65997;BME280;52765;52.258;21.052;2023-07-22T00:29:51;99997.25;;;19.17;91.65
65997;BME280;52765;52.258;21.052;2023-07-22T00:32:17;100011.97;;;19.16;92.59
65997;BME280;52765;52.258;21.052;2023-07-22T00:34:42;100001.69;;;19.11;91.93
65997;BME280;52765;52.258;21.052;2023-07-22T00:37:08;99997.53;;;19.09;91.38
65997;BME280;52765;52.258;21.052;2023-07-22T00:39:33;100007.38;;;19.10;91.30
65997;BME280;52765;52.258;21.052;2023-07-22T00:41:59;99996.06;;;19.06;91.61
65997;BME280;52765;52.258;21.052;2023-07-22T00:44:26;100004.25;;;19.06;91.49
65997;BME280;52765;52.258;21.052;2023-07-22T00:46:54;100011.78;;;19.11;91.54
65997;BME280;52765;52.258;21.052;2023-07-22T00:49:22;99997.97;;;19.06;91.71
65997;BME280;52765;52.258;21.052;2023-07-22T00:51:48;99998.19;;;19.04;91.31
65997;BME280;52765;52.258;21.052;2023-07-22T00:54:14;100001.31;;;19.08;91.37
65997;BME280;52765;52.258;21.052;2023-07-22T00:56:40;99999.41;;;19.08;91.62
65997;BME280;52765;52.258;21.052;2023-07-22T00:59:07;100001.31;;;19.08;92.17
65997;BME280;52765;52.258;21.052;2023-07-22T01:01:32;99999.63;;;19.07;92.62
65997;BME280;52765;52.258;21.052;2023-07-22T01:03:57;100000.09;;;19.03;93.19
65997;BME280;52765;52.258;21.052;2023-07-22T01:06:23;99990.66;;;18.99;93.45
65997;BME280;52765;52.258;21.052;2023-07-22T01:08:50;100000.53;;;19.00;93.38
65997;BME280;52765;52.258;21.052;2023-07-22T01:11:16;99988.97;;;18.98;94.05
65997;BME280;52765;52.258;21.052;2023-07-22T01:13:41;99988.38;;;18.96;93.69
65997;BME280;52765;52.258;21.052;2023-07-22T01:16:07;99983.34;;;18.93;93.45
65997;BME280;52765;52.258;21.052;2023-07-22T01:18:35;99983.75;;;18.97;92.90
65997;BME280;52765;52.258;21.052;2023-07-22T01:21:01;99983.28;;;19.00;92.88
65997;BME280;52765;52.258;21.052;2023-07-22T01:23:26;99981.41;;;19.00;93.13
65997;BME280;52765;52.258;21.052;2023-07-22T01:25:52;99979.06;;;19.04;93.25
65997;BME280;52765;52.258;21.052;2023-07-22T01:28:20;99974.84;;;19.08;93.70
65997;BME280;52765;52.258;21.052;2023-07-22T01:30:46;99962.31;;;19.00;93.75
65997;BME280;52765;52.258;21.052;2023-07-22T01:33:12;99964.81;;;19.02;94.20
65997;BME280;52765;52.258;21.052;2023-07-22T01:35:37;99952.22;;;19.01;94.20
65997;BME280;52765;52.258;21.052;2023-07-22T01:38:03;99952.84;;;19.03;94.64
65997;BME280;52765;52.258;21.052;2023-07-22T01:40:28;99949.28;;;19.02;94.67
65997;BME280;52765;52.258;21.052;2023-07-22T01:42:54;99951.19;;;19.02;95.48
65997;BME280;52765;52.258;21.052;2023-07-22T01:45:19;99944.03;;;19.01;96.14
65997;BME280;52765;52.258;21.052;2023-07-22T01:47:45;99947.44;;;18.96;96.18
65997;BME280;52765;52.258;21.052;2023-07-22T01:50:10;99950.81;;;18.92;96.72
65997;BME280;52765;52.258;21.052;2023-07-22T01:52:36;99950.81;;;18.92;96.52
65997;BME280;52765;52.258;21.052;2023-07-22T01:55:01;99950.19;;;18.90;96.62
65997;BME280;52765;52.258;21.052;2023-07-22T01:57:32;99939.50;;;18.88;96.36
65997;BME280;52765;52.258;21.052;2023-07-22T01:59:57;99938.28;;;18.84;97.06
65997;BME280;52765;52.258;21.052;2023-07-22T02:02:22;99944.97;;;18.81;96.39
65997;BME280;52765;52.258;21.052;2023-07-22T02:04:48;99963.25;;;18.81;96.60
65997;BME280;52765;52.258;21.052;2023-07-22T02:07:13;99947.31;;;18.78;96.73
65997;BME280;52765;52.258;21.052;2023-07-22T02:09:40;99951.09;;;18.77;96.12
65997;BME280;52765;52.258;21.052;2023-07-22T02:12:06;99944.19;;;18.74;96.18
65997;BME280;52765;52.258;21.052;2023-07-22T02:14:33;99948.19;;;18.72;96.88
65997;BME280;52765;52.258;21.052;2023-07-22T02:16:58;99954.94;;;18.69;97.06
65997;BME280;52765;52.258;21.052;2023-07-22T02:19:24;99960.41;;;18.69;97.00
65997;BME280;52765;52.258;21.052;2023-07-22T02:21:49;99952.44;;;18.67;97.40
65997;BME280;52765;52.258;21.052;2023-07-22T02:24:15;99947.81;;;18.68;97.92
65997;BME280;52765;52.258;21.052;2023-07-22T02:26:40;99949.91;;;18.66;97.97
65997;BME280;52765;52.258;21.052;2023-07-22T02:29:05;99940.69;;;18.67;98.26
65997;BME280;52765;52.258;21.052;2023-07-22T02:31:31;99944.25;;;18.67;98.71
65997;BME280;52765;52.258;21.052;2023-07-22T02:33:56;99947.19;;;18.66;98.64
65997;BME280;52765;52.258;21.052;2023-07-22T02:36:22;99939.84;;;18.66;98.57
65997;BME280;52765;52.258;21.052;2023-07-22T02:38:47;99941.94;;;18.64;98.79
65997;BME280;52765;52.258;21.052;2023-07-22T02:41:12;99938.19;;;18.65;98.71
65997;BME280;52765;52.258;21.052;2023-07-22T02:43:38;99948.88;;;18.67;98.71
65997;BME280;52765;52.258;21.052;2023-07-22T02:46:06;99946.75;;;18.69;98.63
65997;BME280;52765;52.258;21.052;2023-07-22T02:48:36;99950.31;;;18.70;98.75
65997;BME280;52765;52.258;21.052;2023-07-22T02:51:07;99954.06;;;18.75;98.83
65997;BME280;52765;52.258;21.052;2023-07-22T02:53:33;99947.97;;;18.73;98.55
65997;BME280;52765;52.258;21.052;2023-07-22T02:56:00;99939.41;;;18.70;98.95
65997;BME280;52765;52.258;21.052;2023-07-22T02:58:25;99948.19;;;18.72;99.17
65997;BME280;52765;52.258;21.052;2023-07-22T03:00:51;99936.44;;;18.71;99.87
65997;BME280;52765;52.258;21.052;2023-07-22T03:03:16;99937.69;;;18.75;99.60
65997;BME280;52765;52.258;21.052;2023-07-22T03:05:44;99930.34;;;18.76;99.66
65997;BME280;52765;52.258;21.052;2023-07-22T03:08:10;99944.38;;;18.79;99.15
65997;BME280;52765;52.258;21.052;2023-07-22T03:10:36;99930.50;;;18.81;99.32
65997;BME280;52765;52.258;21.052;2023-07-22T03:13:02;99934.50;;;18.78;99.31
65997;BME280;52765;52.258;21.052;2023-07-22T03:15:29;99926.53;;;18.77;99.75
65997;BME280;52765;52.258;21.052;2023-07-22T03:17:55;99919.44;;;18.76;100.00
65997;BME280;52765;52.258;21.052;2023-07-22T03:20:21;99928.44;;;18.76;100.00
65997;BME280;52765;52.258;21.052;2023-07-22T03:22:48;99925.88;;;18.81;99.43
65997;BME280;52765;52.258;21.052;2023-07-22T03:25:14;99924.00;;;18.82;98.97
65997;BME280;52765;52.258;21.052;2023-07-22T03:27:42;99928.00;;;18.79;98.67
65997;BME280;52765;52.258;21.052;2023-07-22T03:30:08;99924.84;;;18.82;98.45
65997;BME280;52765;52.258;21.052;2023-07-22T03:32:35;99922.91;;;18.90;98.16
65997;BME280;52765;52.258;21.052;2023-07-22T03:35:01;99923.31;;;18.93;97.99
65997;BME280;52765;52.258;21.052;2023-07-22T03:37:29;99930.00;;;18.97;97.93
65997;BME280;52765;52.258;21.052;2023-07-22T03:39:55;99940.25;;;19.02;97.44
65997;BME280;52765;52.258;21.052;2023-07-22T03:42:20;99928.25;;;19.03;97.16
65997;BME280;52765;52.258;21.052;2023-07-22T03:44:46;99939.13;;;19.10;97.32
65997;BME280;52765;52.258;21.052;2023-07-22T03:47:11;99929.44;;;19.14;97.17
65997;BME280;52765;52.258;21.052;2023-07-22T03:49:36;99938.03;;;19.17;96.78
65997;BME280;52765;52.258;21.052;2023-07-22T03:52:02;99932.34;;;19.19;96.27
65997;BME280;52765;52.258;21.052;2023-07-22T03:54:27;99936.50;;;19.21;94.79
65997;BME280;52765;52.258;21.052;2023-07-22T03:56:53;99936.78;;;19.13;94.99
65997;BME280;52765;52.258;21.052;2023-07-22T03:59:18;99940.53;;;19.19;94.84
65997;BME280;52765;52.258;21.052;2023-07-22T04:01:43;99947.09;;;19.11;95.23
65997;BME280;52765;52.258;21.052;2023-07-22T04:04:09;99940.59;;;19.12;95.48
65997;BME280;52765;52.258;21.052;2023-07-22T04:06:34;99943.88;;;19.21;94.96
65997;BME280;52765;52.258;21.052;2023-07-22T04:09:00;99942.31;;;19.32;94.70
65997;BME280;52765;52.258;21.052;2023-07-22T04:11:26;99928.13;;;19.41;94.15
65997;BME280;52765;52.258;21.052;2023-07-22T04:13:52;99929.97;;;19.48;93.86
65997;BME280;52765;52.258;21.052;2023-07-22T04:16:17;99932.84;;;19.53;93.37
65997;BME280;52765;52.258;21.052;2023-07-22T04:18:43;99940.38;;;19.57;93.06
65997;BME280;52765;52.258;21.052;2023-07-22T04:21:08;99930.03;;;19.59;92.61
65997;BME280;52765;52.258;21.052;2023-07-22T04:23:33;99926.03;;;19.62;92.62
65997;BME280;52765;52.258;21.052;2023-07-22T04:26:02;99928.06;;;19.67;92.15
65997;BME280;52765;52.258;21.052;2023-07-22T04:28:30;99937.72;;;19.69;92.01
65997;BME280;52765;52.258;21.052;2023-07-22T04:30:57;99936.75;;;19.64;91.35
65997;BME280;52765;52.258;21.052;2023-07-22T04:33:23;99940.75;;;19.61;91.30
65997;BME280;52765;52.258;21.052;2023-07-22T04:35:49;99947.44;;;19.65;90.58
65997;BME280;52765;52.258;21.052;2023-07-22T04:38:14;99956.53;;;19.59;90.50
65997;BME280;52765;52.258;21.052;2023-07-22T04:40:43;99945.22;;;19.55;91.55
65997;BME280;52765;52.258;21.052;2023-07-22T04:43:08;99951.38;;;19.51;91.52
65997;BME280;52765;52.258;21.052;2023-07-22T04:45:34;99946.78;;;19.45;91.28
65997;BME280;52765;52.258;21.052;2023-07-22T04:47:59;99955.66;;;19.40;91.58
65997;BME280;52765;52.258;21.052;2023-07-22T04:50:25;99962.13;;;19.46;91.49
65997;BME280;52765;52.258;21.052;2023-07-22T04:52:50;99970.72;;;19.49;91.20
65997;BME280;52765;52.258;21.052;2023-07-22T04:55:16;99975.13;;;19.50;91.13
65997;BME280;52765;52.258;21.052;2023-07-22T04:57:42;99964.66;;;19.47;91.29
65997;BME280;52765;52.258;21.052;2023-07-22T05:00:11;99967.59;;;19.46;91.56
65997;BME280;52765;52.258;21.052;2023-07-22T05:02:40;99966.94;;;19.50;91.98
65997;BME280;52765;52.258;21.052;2023-07-22T05:05:05;99964.88;;;19.46;91.18
65997;BME280;52765;52.258;21.052;2023-07-22T05:07:31;99978.97;;;19.42;91.59
65997;BME280;52765;52.258;21.052;2023-07-22T05:09:56;99980.13;;;19.28;92.76
65997;BME280;52765;52.258;21.052;2023-07-22T05:12:21;99981.38;;;19.32;93.28
65997;BME280;52765;52.258;21.052;2023-07-22T05:14:48;99987.06;;;19.31;93.01
65997;BME280;52765;52.258;21.052;2023-07-22T05:17:13;99985.53;;;19.35;93.27
65997;BME280;52765;52.258;21.052;2023-07-22T05:19:39;99992.34;;;19.26;94.04
65997;BME280;52765;52.258;21.052;2023-07-22T05:22:04;99997.06;;;19.12;95.48
65997;BME280;52765;52.258;21.052;2023-07-22T05:24:30;100009.69;;;18.74;97.71
65997;BME280;52765;52.258;21.052;2023-07-22T05:26:55;100003.72;;;18.52;99.51
65997;BME280;52765;52.258;21.052;2023-07-22T05:29:20;99999.28;;;18.58;99.68
65997;BME280;52765;52.258;21.052;2023-07-22T05:31:46;100009.53;;;18.62;99.92
65997;BME280;52765;52.258;21.052;2023-07-22T05:34:12;100006.63;;;18.57;99.92
65997;BME280;52765;52.258;21.052;2023-07-22T05:36:37;100000.53;;;18.62;99.43
65997;BME280;52765;52.258;21.052;2023-07-22T05:39:03;100012.56;;;18.47;100.00
65997;BME280;52765;52.258;21.052;2023-07-22T05:41:28;100006.09;;;18.42;100.00
65997;BME280;52765;52.258;21.052;2023-07-22T05:43:54;99999.19;;;18.33;100.00
65997;BME280;52765;52.258;21.052;2023-07-22T05:46:19;100006.56;;;18.25;100.00
65997;BME280;52765;52.258;21.052;2023-07-22T05:48:45;100005.75;;;18.18;100.00
65997;BME280;52765;52.258;21.052;2023-07-22T05:51:10;100013.34;;;18.03;100.00
65997;BME280;52765;52.258;21.052;2023-07-22T05:53:35;100010.03;;;17.81;100.00
65997;BME280;52765;52.258;21.052;2023-07-22T05:56:01;100001.63;;;17.82;100.00
65997;BME280;52765;52.258;21.052;2023-07-22T05:58:26;100007.72;;;17.91;100.00
65997;BME280;52765;52.258;21.052;2023-07-22T06:00:53;100010.03;;;17.94;100.00
65997;BME280;52765;52.258;21.052;2023-07-22T06:03:19;100016.06;;;18.09;100.00
65997;BME280;52765;52.258;21.052;2023-07-22T06:05:46;100009.34;;;18.12;100.00
65997;BME280;52765;52.258;21.052;2023-07-22T06:08:11;100012.47;;;18.16;99.68
65997;BME280;52765;52.258;21.052;2023-07-22T06:10:37;100021.50;;;18.09;100.00
65997;BME280;52765;52.258;21.052;2023-07-22T06:13:03;100024.03;;;18.04;100.00
65997;BME280;52765;52.258;21.052;2023-07-22T06:15:29;100025.75;;;17.99;100.00
65997;BME280;52765;52.258;21.052;2023-07-22T06:17:55;100018.38;;;17.99;100.00
65997;BME280;52765;52.258;21.052;2023-07-22T06:20:20;100022.75;;;18.14;100.00
65997;BME280;52765;52.258;21.052;2023-07-22T06:22:46;100016.81;;;18.30;99.70
65997;BME280;52765;52.258;21.052;2023-07-22T06:25:11;100022.44;;;18.42;98.55
65997;BME280;52765;52.258;21.052;2023-07-22T06:27:37;100017.34;;;18.59;98.61
65997;BME280;52765;52.258;21.052;2023-07-22T06:30:03;100025.78;;;18.82;96.93
65997;BME280;52765;52.258;21.052;2023-07-22T06:32:30;100018.91;;;19.12;94.36
65997;BME280;52765;52.258;21.052;2023-07-22T06:34:58;100017.47;;;19.34;93.06
65997;BME280;52765;52.258;21.052;2023-07-22T06:37:24;100019.81;;;19.56;90.46
65997;BME280;52765;52.258;21.052;2023-07-22T06:39:50;100020.66;;;19.56;88.13
65997;BME280;52765;52.258;21.052;2023-07-22T06:42:15;100019.81;;;19.56;88.79
65997;BME280;52765;52.258;21.052;2023-07-22T06:44:41;100019.25;;;19.72;88.86
65997;BME280;52765;52.258;21.052;2023-07-22T06:47:06;100018.63;;;19.95;86.77
65997;BME280;52765;52.258;21.052;2023-07-22T06:49:32;100019.47;;;20.14;85.21
65997;BME280;52765;52.258;21.052;2023-07-22T06:51:57;100031.00;;;20.17;81.10
65997;BME280;52765;52.258;21.052;2023-07-22T06:54:23;100030.41;;;20.14;80.11
65997;BME280;52765;52.258;21.052;2023-07-22T06:56:48;100034.13;;;20.20;80.09
65997;BME280;52765;52.258;21.052;2023-07-22T06:59:14;100036.31;;;20.30;79.23
65997;BME280;52765;52.258;21.052;2023-07-22T07:01:39;100033.91;;;20.40;79.01
65997;BME280;52765;52.258;21.052;2023-07-22T07:04:05;100039.66;;;20.50;78.40
65997;BME280;52765;52.258;21.052;2023-07-22T07:06:31;100041.44;;;20.57;76.29
65997;BME280;52765;52.258;21.052;2023-07-22T07:08:59;100029.31;;;20.71;76.08
65997;BME280;52765;52.258;21.052;2023-07-22T07:11:25;100032.28;;;20.51;73.66
65997;BME280;52765;52.258;21.052;2023-07-22T07:13:51;100029.31;;;20.52;74.37
65997;BME280;52765;52.258;21.052;2023-07-22T07:16:30;100034.47;;;20.61;73.95
65997;BME280;52765;52.258;21.052;2023-07-22T07:18:57;100033.84;;;20.77;73.42
65997;BME280;52765;52.258;21.052;2023-07-22T07:21:23;100041.69;;;21.04;71.73
65997;BME280;52765;52.258;21.052;2023-07-22T07:23:49;100053.09;;;21.01;70.45
65997;BME280;52765;52.258;21.052;2023-07-22T07:26:15;100057.75;;;21.00;68.73
65997;BME280;52765;52.258;21.052;2023-07-22T07:28:41;100060.13;;;20.97;68.66
65997;BME280;52765;52.258;21.052;2023-07-22T07:31:06;100062.78;;;21.03;68.82
65997;BME280;52765;52.258;21.052;2023-07-22T07:33:33;100054.13;;;21.18;68.62
65997;BME280;52765;52.258;21.052;2023-07-22T07:35:58;100059.28;;;21.38;68.21
65997;BME280;52765;52.258;21.052;2023-07-22T07:38:24;100075.56;;;21.33;67.77
65997;BME280;52765;52.258;21.052;2023-07-22T07:40:57;100065.69;;;20.90;70.67
65997;BME280;52765;52.258;21.052;2023-07-22T07:43:23;100071.25;;;20.83;71.88
65997;BME280;52765;52.258;21.052;2023-07-22T07:45:48;100073.59;;;20.61;72.33
65997;BME280;52765;52.258;21.052;2023-07-22T07:48:14;100084.50;;;20.68;72.65
65997;BME280;52765;52.258;21.052;2023-07-22T07:50:39;100081.31;;;20.71;72.79
65997;BME280;52765;52.258;21.052;2023-07-22T07:53:05;100093.16;;;20.83;72.38
65997;BME280;52765;52.258;21.052;2023-07-22T07:55:30;100083.22;;;21.01;72.53
65997;BME280;52765;52.258;21.052;2023-07-22T07:57:56;100086.50;;;20.91;72.10
65997;BME280;52765;52.258;21.052;2023-07-22T08:00:21;100089.50;;;20.71;72.21
65997;BME280;52765;52.258;21.052;2023-07-22T08:02:47;100101.53;;;20.70;72.63
65997;BME280;52765;52.258;21.052;2023-07-22T08:05:13;100094.75;;;20.73;70.89
65997;BME280;52765;52.258;21.052;2023-07-22T08:07:38;100102.06;;;20.79;70.37
65997;BME280;52765;52.258;21.052;2023-07-22T08:10:05;100092.06;;;20.84;69.62
65997;BME280;52765;52.258;21.052;2023-07-22T08:12:33;100097.88;;;20.76;68.71
65997;BME280;52765;52.258;21.052;2023-07-22T08:15:01;100094.91;;;20.78;68.59
65997;BME280;52765;52.258;21.052;2023-07-22T08:17:27;100101.28;;;20.90;68.78
65997;BME280;52765;52.258;21.052;2023-07-22T08:19:54;100117.72;;;20.90;66.90
65997;BME280;52765;52.258;21.052;2023-07-22T08:22:22;100103.31;;;20.95;66.08
65997;BME280;52765;52.258;21.052;2023-07-22T08:24:47;100116.91;;;21.01;65.21
65997;BME280;52765;52.258;21.052;2023-07-22T08:27:13;100122.69;;;21.12;63.39
65997;BME280;52765;52.258;21.052;2023-07-22T08:29:38;100122.72;;;21.23;60.74
65997;BME280;52765;52.258;21.052;2023-07-22T08:32:04;100108.63;;;21.20;60.75
65997;BME280;52765;52.258;21.052;2023-07-22T08:34:29;100115.13;;;21.37;60.74
65997;BME280;52765;52.258;21.052;2023-07-22T08:36:54;100112.72;;;21.59;60.21
65997;BME280;52765;52.258;21.052;2023-07-22T08:39:23;100125.50;;;21.89;59.47
65997;BME280;52765;52.258;21.052;2023-07-22T08:41:49;100126.09;;;21.91;58.49
65997;BME280;52765;52.258;21.052;2023-07-22T08:44:19;100130.13;;;21.53;56.74
65997;BME280;52765;52.258;21.052;2023-07-22T08:46:49;100143.69;;;21.30;56.68
65997;BME280;52765;52.258;21.052;2023-07-22T08:49:19;100156.09;;;21.02;57.12
65997;BME280;52765;52.258;21.052;2023-07-22T08:51:45;100142.25;;;20.97;58.86
65997;BME280;52765;52.258;21.052;2023-07-22T08:54:11;100131.72;;;20.82;58.11
65997;BME280;52765;52.258;21.052;2023-07-22T08:56:38;100129.59;;;21.14;57.18
65997;BME280;52765;52.258;21.052;2023-07-22T08:59:07;100138.22;;;21.30;56.73
65997;BME280;52765;52.258;21.052;2023-07-22T09:01:34;100154.66;;;21.30;56.87
65997;BME280;52765;52.258;21.052;2023-07-22T09:04:01;100150.03;;;21.30;56.90
65997;BME280;52765;52.258;21.052;2023-07-22T09:06:26;100146.41;;;21.48;56.73
65997;BME280;52765;52.258;21.052;2023-07-22T09:08:52;100141.59;;;21.74;57.33
65997;BME280;52765;52.258;21.052;2023-07-22T09:11:19;100140.53;;;21.87;56.61
65997;BME280;52765;52.258;21.052;2023-07-22T09:13:44;100136.84;;;22.05;56.63
65997;BME280;52765;52.258;21.052;2023-07-22T09:16:12;100147.09;;;22.09;55.47
65997;BME280;52765;52.258;21.052;2023-07-22T09:18:38;100150.31;;;21.94;56.31
65997;BME280;52765;52.258;21.052;2023-07-22T09:21:03;100144.84;;;22.06;56.14
65997;BME280;52765;52.258;21.052;2023-07-22T09:23:39;100149.38;;;22.48;55.02
65997;BME280;52765;52.258;21.052;2023-07-22T09:26:17;100156.38;;;22.79;53.90
65997;BME280;52765;52.258;21.052;2023-07-22T09:28:57;100152.72;;;23.14;53.84
65997;BME280;52765;52.258;21.052;2023-07-22T09:31:27;100156.28;;;23.43;52.88
65997;BME280;52765;52.258;21.052;2023-07-22T09:33:53;100152.31;;;22.82;53.04
65997;BME280;52765;52.258;21.052;2023-07-22T09:36:20;100159.50;;;22.59;53.81
65997;BME280;52765;52.258;21.052;2023-07-22T09:39:08;100155.22;;;22.28;53.46
65997;BME280;52765;52.258;21.052;2023-07-22T09:41:41;100157.38;;;22.38;53.35
65997;BME280;52765;52.258;21.052;2023-07-22T09:44:09;100150.81;;;22.62;51.92
65997;BME280;52765;52.258;21.052;2023-07-22T09:46:36;100163.41;;;22.87;51.38
65997;BME280;52765;52.258;21.052;2023-07-22T09:49:05;100157.34;;;23.25;50.59
65997;BME280;52765;52.258;21.052;2023-07-22T09:51:35;100160.44;;;23.46;50.90
65997;BME280;52765;52.258;21.052;2023-07-22T09:54:02;100154.38;;;23.44;49.52
65997;BME280;52765;52.258;21.052;2023-07-22T09:56:28;100150.00;;;23.60;49.95
65997;BME280;52765;52.258;21.052;2023-07-22T09:58:54;100170.16;;;23.08;48.60
65997;BME280;52765;52.258;21.052;2023-07-22T10:01:23;100181.63;;;22.93;49.07
65997;BME280;52765;52.258;21.052;2023-07-22T10:03:52;100165.13;;;22.64;48.83
65997;BME280;52765;52.258;21.052;2023-07-22T10:06:30;100175.63;;;22.67;48.14
65997;BME280;52765;52.258;21.052;2023-07-22T10:09:02;100180.91;;;22.98;48.14
65997;BME280;52765;52.258;21.052;2023-07-22T10:11:29;100172.00;;;23.31;47.55
65997;BME280;52765;52.258;21.052;2023-07-22T10:13:55;100203.63;;;23.62;46.85
65997;BME280;52765;52.258;21.052;2023-07-22T10:16:22;100179.47;;;23.64;46.80
65997;BME280;52765;52.258;21.052;2023-07-22T10:18:48;100193.47;;;23.63;47.25
65997;BME280;52765;52.258;21.052;2023-07-22T10:21:14;100178.09;;;23.79;46.87
65997;BME280;52765;52.258;21.052;2023-07-22T10:23:44;100181.81;;;23.73;46.61
65997;BME280;52765;52.258;21.052;2023-07-22T10:26:11;100186.13;;;23.52;47.97
65997;BME280;52765;52.258;21.052;2023-07-22T10:28:40;100177.50;;;23.60;44.47
65997;BME280;52765;52.258;21.052;2023-07-22T10:31:06;100187.81;;;23.70;44.33
65997;BME280;52765;52.258;21.052;2023-07-22T10:33:32;100175.81;;;23.76;43.30
65997;BME280;52765;52.258;21.052;2023-07-22T10:36:06;100185.41;;;23.27;43.59
65997;BME280;52765;52.258;21.052;2023-07-22T10:38:32;100201.69;;;23.17;43.51
65997;BME280;52765;52.258;21.052;2023-07-22T10:40:57;100191.56;;;23.35;44.21
65997;BME280;52765;52.258;21.052;2023-07-22T10:43:33;100193.50;;;22.82;46.48
65997;BME280;52765;52.258;21.052;2023-07-22T10:46:06;100186.75;;;23.25;46.17
65997;BME280;52765;52.258;21.052;2023-07-22T10:48:35;100181.66;;;23.62;44.71
65997;BME280;52765;52.258;21.052;2023-07-22T10:51:12;100171.44;;;23.75;44.29
65997;BME280;52765;52.258;21.052;2023-07-22T10:53:58;100189.97;;;23.51;45.08
65997;BME280;52765;52.258;21.052;2023-07-22T10:56:23;100189.97;;;23.22;45.89
65997;BME280;52765;52.258;21.052;2023-07-22T10:58:56;100194.94;;;23.37;46.00
65997;BME280;52765;52.258;21.052;2023-07-22T11:12:13;100179.69;;;24.82;43.44
65997;BME280;52765;52.258;21.052;2023-07-22T11:14:49;100181.16;;;24.89;43.50
65997;BME280;52765;52.258;21.052;2023-07-22T11:17:14;100186.44;;;25.13;43.25
65997;BME280;52765;52.258;21.052;2023-07-22T11:19:40;100191.84;;;25.08;42.88
65997;BME280;52765;52.258;21.052;2023-07-22T11:22:06;100189.94;;;24.86;43.12
65997;BME280;52765;52.258;21.052;2023-07-22T11:24:35;100181.59;;;24.81;43.13
65997;BME280;52765;52.258;21.052;2023-07-22T11:27:05;100182.38;;;24.99;43.20
65997;BME280;52765;52.258;21.052;2023-07-22T11:29:30;100184.75;;;24.51;43.64
65997;BME280;52765;52.258;21.052;2023-07-22T11:31:56;100189.69;;;25.10;42.66
65997;BME280;52765;52.258;21.052;2023-07-22T11:34:23;100187.56;;;25.17;42.63
65997;BME280;52765;52.258;21.052;2023-07-22T11:36:51;100199.28;;;24.63;41.70
65997;BME280;52765;52.258;21.052;2023-07-22T11:39:18;100211.63;;;24.61;41.43
65997;BME280;52765;52.258;21.052;2023-07-22T11:41:45;100183.34;;;24.48;41.95
65997;BME280;52765;52.258;21.052;2023-07-22T11:44:12;100201.84;;;25.14;41.18
65997;BME280;52765;52.258;21.052;2023-07-22T11:47:01;100179.91;;;25.24;41.42
65997;BME280;52765;52.258;21.052;2023-07-22T11:49:33;100190.19;;;25.07;42.48
65997;BME280;52765;52.258;21.052;2023-07-22T11:52:01;100187.09;;;24.42;43.19
65997;BME280;52765;52.258;21.052;2023-07-22T11:54:28;100206.28;;;24.03;43.63
65997;BME280;52765;52.258;21.052;2023-07-22T11:56:55;100184.56;;;23.56;44.94
65997;BME280;52765;52.258;21.052;2023-07-22T11:59:38;100193.34;;;23.41;45.11
65997;BME280;52765;52.258;21.052;2023-07-22T12:02:04;100203.38;;;23.18;45.75
65997;BME280;52765;52.258;21.052;2023-07-22T12:04:33;100187.13;;;23.45;45.83
65997;BME280;52765;52.258;21.052;2023-07-22T12:07:02;100199.97;;;23.57;45.67
65997;BME280;52765;52.258;21.052;2023-07-22T12:09:29;100173.41;;;23.79;45.22
65997;BME280;52765;52.258;21.052;2023-07-22T12:11:58;100171.69;;;24.24;44.20
65997;BME280;52765;52.258;21.052;2023-07-22T12:14:24;100184.91;;;24.61;43.71
65997;BME280;52765;52.258;21.052;2023-07-22T12:16:55;100177.50;;;25.06;41.46
65997;BME280;52765;52.258;21.052;2023-07-22T12:19:24;100178.78;;;25.42;41.30
65997;BME280;52765;52.258;21.052;2023-07-22T12:21:49;100162.63;;;25.83;39.85
65997;BME280;52765;52.258;21.052;2023-07-22T12:24:15;100167.09;;;26.22;39.72
65997;BME280;52765;52.258;21.052;2023-07-22T12:26:40;100162.19;;;26.77;37.94
65997;BME280;52765;52.258;21.052;2023-07-22T12:29:07;100174.06;;;26.77;36.78
65997;BME280;52765;52.258;21.052;2023-07-22T12:31:33;100151.53;;;25.78;37.95
65997;BME280;52765;52.258;21.052;2023-07-22T12:33:58;100170.25;;;25.22;39.14
65997;BME280;52765;52.258;21.052;2023-07-22T12:36:24;100181.28;;;25.22;39.57
65997;BME280;52765;52.258;21.052;2023-07-22T12:38:49;100173.00;;;25.44;39.19
65997;BME280;52765;52.258;21.052;2023-07-22T12:41:15;100168.56;;;25.43;38.88
65997;BME280;52765;52.258;21.052;2023-07-22T12:43:40;100178.78;;;25.42;38.94
65997;BME280;52765;52.258;21.052;2023-07-22T12:46:05;100170.50;;;25.42;38.57
65997;BME280;52765;52.258;21.052;2023-07-22T12:48:31;100158.84;;;25.62;37.82
65997;BME280;52765;52.258;21.052;2023-07-22T12:50:56;100170.25;;;25.76;37.13